Hovedside
METAR-TAF:

METAR-TAF

Lufthavner :

Udon Thani, Thailand

breddegrad: 17-23N, lengdegrad: 102-48E, høyde over havet: 177 m

Gjeldene værobservasjon

Denne rapporten ble laget for 30 minutter siden, klokken 02:00 UTC
Vind 3 kt fra skiftende retning
Temperatur 32°C
Luftfuktighet 71%
Trykk 1004 hPa
Sikt 10 km eller mer
ingen skyer under 1500 m og ingen bygeskyer

METAR: VTUD 220200Z VRB03KT CAVOK 32/26 Q1004 NOSIG

Tid: 09:30 (02:30 UTC)

Varsel

Denne rapporten ble laget for 3 timer og 30 minutter siden, klokken 23:00 UTC
Varsel gyldig fra 22. klokken 00 UTC til 22. klokken 24 UTC
Vind 5 kt fra Sør-sørvest
Sikt: 9000 m
Få skyer i en høyde av 3000 ft
Midlertidig
fra 22. klokken 08 UTC til 22. klokken 14 UTC
Vind 15 kt fra skiftende retning
Få skyer i en høyde av 1800 ft, Bygeskyer.
Brutte skyer i en høyde av 2500 ft
torden, lett regn,

TAF: VTUD 212300Z 2200/2224 21005KT 9000 FEW030 TEMPO 2208/2214 VRB15KT -TSRA FEW018CB BKN025

Værobservasjoner og værvarsel for over 4000 flyplasser (METAR- og TAF-rapporter).

Tilgjengelige stasjoner er representert av de røde og gule prikkene på kartet.

Hold musepekeren over prikken for å se navnet på stasjonen.

Klikk så for å se værobservasjoner og -varsler.

For å forandre kartet kan du klikke på den grønne knappen med svart kryss for å zoome inn, på den grønne knappen med strek for å zoome ut, eller på de grønne pilene for å se tilstøtende kart.


METAR-TAF: